Airport View

Enter AWOS ICAO identifier for current METAR.

ex. KFNL

KATW 022245Z AUTO 31008KT 10SM SCT060 SCT080 31/15 A2973 RMK AO2

2 Jun 2020 22:48

Phone: 920-832-2597

Other Area AWOS: KOSH - KGRB - KPCZ - KCLI

TAF KATW 021728Z 0218/0318 25010KT P6SM SKC FM022100 25009KT P6SM SCT040 FM030000 28007KT P6SM VCTS BKN040CB TEMPO 0301/0305 3SM TSRA BKN025CB FM030700 29004KT P6SM BKN080 FM031400 31005KT P6SM SKC